Time;durP1;ratioP1;P1;durP2;ratioP2;P2;SDS_P1;SDS_P2;PMS_P1;PMS_P2;Temp;Humidity;BMP_temperature;BMP_pressure;BME280_temperature;BME280_humidity;BME280_pressure;Samples;Min_cycle;Max_cycle;Signal;HPM_P1;HPM_P2
2024/02/22 00:00:35;;;;;;;1.08;0.93;;;11.90;99.90;;;;;;5093896;28;20097;-78
2024/02/22 00:03:01;;;;;;;1.55;0.98;;;12.00;99.90;;;;;;5104341;28;20750;-77
2024/02/22 00:05:26;;;;;;;1.90;1.55;;;12.00;99.90;;;;;;5097661;28;20369;-77
2024/02/22 00:07:53;;;;;;;1.45;0.93;;;12.00;99.90;;;;;;5095889;27;20042;-77
2024/02/22 00:10:18;;;;;;;1.20;1.10;;;12.00;99.90;;;;;;5103575;27;20019;-79
2024/02/22 00:12:44;;;;;;;0.77;0.77;;;12.00;99.90;;;;;;5101912;28;20534;-77
2024/02/22 00:15:13;;;;;;;1.38;1.27;;;12.00;99.90;;;;;;5091754;28;20028;-76
2024/02/22 00:17:39;;;;;;;0.90;0.90;;;12.10;99.90;;;;;;5100950;28;20038;-77
2024/02/22 00:20:06;;;;;;;1.00;0.90;;;12.00;99.90;;;;;;5092966;28;20040;-77
2024/02/22 00:22:32;;;;;;;1.17;1.08;;;12.10;99.90;;;;;;5102107;28;20055;-76
2024/02/22 00:24:59;;;;;;;1.10;1.08;;;12.00;99.90;;;;;;5094879;28;20031;-77
2024/02/22 00:27:26;;;;;;;3.00;1.67;;;12.00;99.90;;;;;;5092532;28;20118;-77
2024/02/22 00:29:51;;;;;;;1.25;1.15;;;12.00;99.90;;;;;;5098107;28;20465;-77
2024/02/22 00:32:17;;;;;;;1.15;1.05;;;12.10;99.90;;;;;;5095014;28;20042;-77
2024/02/22 00:34:42;;;;;;;0.85;0.85;;;12.00;99.90;;;;;;5100209;28;20688;-76
2024/02/22 00:37:08;;;;;;;0.82;0.70;;;12.10;99.90;;;;;;5101389;28;20449;-77
2024/02/22 00:39:34;;;;;;;2.03;1.45;;;12.10;99.90;;;;;;5102608;28;20031;-77
2024/02/22 00:41:59;;;;;;;0.75;0.75;;;12.10;99.90;;;;;;5091122;28;20067;-77
2024/02/22 00:44:25;;;;;;;1.35;1.25;;;12.10;99.90;;;;;;5101915;28;20067;-77
2024/02/22 00:46:54;;;;;;;1.95;1.70;;;12.10;99.90;;;;;;5098314;28;20147;-77
2024/02/22 00:49:19;;;;;;;1.63;1.17;;;12.10;99.90;;;;;;5107220;28;20036;-77
2024/02/22 00:51:45;;;;;;;1.60;1.50;;;12.20;99.90;;;;;;5101481;28;20059;-77
2024/02/22 00:54:12;;;;;;;0.70;0.70;;;12.10;99.90;;;;;;5091577;28;20131;-77
2024/02/22 00:56:41;;;;;;;1.50;1.40;;;12.10;99.90;;;;;;5097301;28;20570;-77
2024/02/22 00:59:06;;;;;;;1.05;1.00;;;12.20;99.90;;;;;;5102035;28;20035;-77
2024/02/22 01:01:32;;;;;;;0.95;0.85;;;12.20;99.90;;;;;;5092099;28;20070;-77
2024/02/22 01:03:58;;;;;;;1.27;1.15;;;12.20;99.90;;;;;;5093498;28;20024;-77
2024/02/22 01:06:23;;;;;;;0.70;0.68;;;12.20;99.90;;;;;;5096484;28;20430;-77
2024/02/22 01:08:49;;;;;;;0.50;0.50;;;12.20;99.90;;;;;;5110853;27;20031;-77
2024/02/22 01:11:15;;;;;;;1.35;0.93;;;12.20;99.90;;;;;;5105151;27;20488;-77
2024/02/22 01:13:40;;;;;;;1.40;1.30;;;12.20;99.90;;;;;;5126919;27;20474;-77
2024/02/22 01:16:06;;;;;;;0.95;0.95;;;12.20;99.90;;;;;;5115908;27;20028;-77
2024/02/22 01:18:33;;;;;;;1.45;0.95;;;12.30;99.90;;;;;;5098184;27;20039;-77
2024/02/22 01:20:59;;;;;;;1.08;1.02;;;12.30;99.90;;;;;;5112988;27;20079;-77
2024/02/22 01:23:25;;;;;;;2.00;1.75;;;12.30;99.90;;;;;;5091990;28;20559;-77
2024/02/22 01:25:50;;;;;;;1.70;1.33;;;12.40;99.90;;;;;;5109912;28;20391;-77
2024/02/22 01:28:16;;;;;;;0.90;0.90;;;12.40;99.90;;;;;;5117277;27;20040;-77
2024/02/22 01:30:42;;;;;;;1.17;1.08;;;12.40;99.90;;;;;;5108193;28;20027;-77
2024/02/22 01:33:08;;;;;;;0.98;0.98;;;12.40;99.90;;;;;;5107640;28;20532;-77
2024/02/22 01:35:34;;;;;;;1.05;1.00;;;12.40;99.90;;;;;;5109949;28;20031;-77
2024/02/22 01:38:00;;;;;;;0.75;0.75;;;12.40;99.90;;;;;;5094195;28;20106;-77
2024/02/22 01:40:26;;;;;;;1.25;1.08;;;12.40;99.90;;;;;;5090137;28;20126;-77
2024/02/22 01:42:51;;;;;;;0.90;0.90;;;12.50;99.90;;;;;;5088977;28;20058;-77
2024/02/22 01:45:17;;;;;;;0.73;0.70;;;12.50;99.90;;;;;;5097494;28;20035;-76
2024/02/22 01:47:43;;;;;;;0.93;0.93;;;12.50;99.90;;;;;;5099196;28;20031;-77
2024/02/22 01:50:10;;;;;;;0.90;0.90;;;12.50;99.90;;;;;;5097482;28;20579;-77
2024/02/22 01:52:37;;;;;;;0.47;0.47;;;12.50;99.90;;;;;;5092855;28;20570;-77
2024/02/22 01:55:06;;;;;;;2.03;1.48;;;12.60;99.90;;;;;;5093683;28;20080;-76
2024/02/22 01:57:36;;;;;;;2.13;1.73;;;12.60;99.90;;;;;;5093695;28;20103;-77
2024/02/22 02:00:11;;;;;;;1.80;1.52;;;12.60;99.90;;;;;;5102817;28;20673;-77
2024/02/22 02:02:39;;;;;;;2.00;1.70;;;12.70;99.90;;;;;;5091918;28;20032;-77
2024/02/22 02:05:06;;;;;;;1.15;0.85;;;12.70;99.90;;;;;;5099320;28;20380;-77
2024/02/22 02:07:34;;;;;;;1.27;1.17;;;12.70;99.90;;;;;;5093347;28;20031;-78
2024/02/22 02:10:00;;;;;;;1.08;1.05;;;12.70;99.90;;;;;;5095302;27;20044;-78
2024/02/22 02:12:25;;;;;;;1.42;1.10;;;12.70;99.90;;;;;;5107629;28;20162;-78
2024/02/22 02:14:55;;;;;;;3.63;2.30;;;12.80;99.90;;;;;;5104489;28;20032;-77
2024/02/22 02:17:20;;;;;;;1.95;1.58;;;12.80;99.90;;;;;;5095795;28;20123;-78
2024/02/22 02:19:47;;;;;;;2.17;1.85;;;12.80;99.90;;;;;;5108492;27;20531;-78
2024/02/22 02:22:28;;;;;;;3.28;2.20;;;12.90;99.90;;;;;;5100768;28;20051;-77
2024/02/22 02:24:57;;;;;;;2.15;1.90;;;12.90;99.90;;;;;;5089089;28;20020;-78
2024/02/22 02:27:22;;;;;;;2.10;1.67;;;12.90;99.90;;;;;;5089253;28;20861;-78
2024/02/22 02:29:48;;;;;;;2.20;1.58;;;12.90;99.90;;;;;;5087668;28;20040;-77
2024/02/22 02:32:14;;;;;;;1.83;1.45;;;12.90;99.90;;;;;;5091259;28;20433;-78
2024/02/22 02:34:39;;;;;;;0.60;0.60;;;12.90;99.90;;;;;;5102117;28;20038;-78
2024/02/22 02:37:06;;;;;;;2.53;1.65;;;12.90;99.90;;;;;;5113488;27;20368;-78
2024/02/22 02:39:32;;;;;;;1.13;1.02;;;12.90;99.90;;;;;;5107049;27;20032;-77
2024/02/22 02:41:59;;;;;;;1.20;1.10;;;12.90;99.90;;;;;;5098583;28;20073;-78
2024/02/22 02:44:24;;;;;;;1.48;1.25;;;12.90;99.90;;;;;;5100214;28;20019;-77
2024/02/22 02:46:50;;;;;;;4.40;2.70;;;12.90;99.90;;;;;;5088463;28;20497;-78
2024/02/22 02:49:16;;;;;;;2.35;2.03;;;12.80;99.90;;;;;;5093314;28;20371;-78
2024/02/22 02:51:42;;;;;;;5.00;2.78;;;12.80;99.90;;;;;;5093311;28;20392;-78
2024/02/22 02:54:07;;;;;;;6.18;3.28;;;12.80;99.90;;;;;;5097219;28;20064;-78
2024/02/22 02:56:33;;;;;;;2.88;1.92;;;12.90;99.90;;;;;;5092091;28;20510;-78
2024/02/22 02:58:59;;;;;;;5.78;3.65;;;12.90;99.90;;;;;;5094905;28;20035;-78
2024/02/22 03:01:25;;;;;;;2.20;1.83;;;12.90;99.90;;;;;;5103132;28;20054;-78
2024/02/22 03:03:51;;;;;;;6.75;3.33;;;12.90;99.90;;;;;;5095278;28;20111;-78
2024/02/22 03:06:16;;;;;;;4.32;3.05;;;12.90;99.90;;;;;;5100108;28;20038;-79
2024/02/22 03:08:42;;;;;;;1.85;1.48;;;12.90;99.90;;;;;;5117268;28;20072;-79
2024/02/22 03:11:08;;;;;;;6.38;3.10;;;12.90;99.90;;;;;;5097868;28;20051;-79
2024/02/22 03:13:33;;;;;;;7.47;2.42;;;12.90;99.90;;;;;;5095269;28;20032;-79
2024/02/22 03:15:59;;;;;;;12.90;5.40;;;12.90;99.90;;;;;;5093481;28;20068;-79
2024/02/22 03:18:25;;;;;;;8.70;3.90;;;12.90;99.90;;;;;;5103126;28;20024;-78
2024/02/22 03:20:52;;;;;;;6.32;3.30;;;12.90;99.90;;;;;;5102861;28;20040;-79
2024/02/22 03:23:18;;;;;;;13.63;5.68;;;13.00;99.90;;;;;;5090806;28;20029;-79
2024/02/22 03:25:44;;;;;;;6.75;3.63;;;13.00;99.90;;;;;;5107181;28;20352;-78
2024/02/22 03:28:12;;;;;;;8.13;4.00;;;12.90;99.90;;;;;;5102388;28;20551;-78
2024/02/22 03:30:39;;;;;;;10.05;4.22;;;12.90;99.90;;;;;;5097755;28;20111;-79
2024/02/22 03:33:08;;;;;;;8.52;4.30;;;12.90;99.90;;;;;;5102491;28;20518;-79
2024/02/22 03:35:37;;;;;;;13.25;5.57;;;12.90;99.90;;;;;;5095710;28;20028;-79
2024/02/22 03:38:04;;;;;;;7.18;3.50;;;12.90;99.90;;;;;;5103845;28;20031;-78
2024/02/22 03:40:30;;;;;;;9.70;3.55;;;12.90;99.90;;;;;;5104806;28;20085;-79
2024/02/22 03:42:57;;;;;;;8.07;4.05;;;12.90;99.90;;;;;;5097404;28;20039;-79
2024/02/22 03:45:23;;;;;;;5.32;3.17;;;12.90;99.90;;;;;;5095140;28;20047;-78
2024/02/22 03:47:49;;;;;;;18.55;7.45;;;13.00;99.90;;;;;;5101058;28;20518;-78
2024/02/22 03:50:15;;;;;;;22.55;6.45;;;12.90;99.90;;;;;;5091030;28;20478;-78
2024/02/22 03:52:41;;;;;;;11.10;5.50;;;13.00;99.90;;;;;;5091523;28;20051;-78
2024/02/22 03:55:09;;;;;;;11.13;4.78;;;13.00;99.90;;;;;;5091401;28;20098;-78
2024/02/22 03:57:35;;;;;;;13.77;5.03;;;12.90;99.90;;;;;;5089362;28;20059;-79
2024/02/22 04:00:06;;;;;;;19.30;5.82;;;13.00;99.90;;;;;;5099222;27;20063;-78
2024/02/22 04:02:38;;;;;;;36.90;9.88;;;13.10;99.90;;;;;;5094451;28;20066;-78
2024/02/22 04:05:04;;;;;;;9.27;2.92;;;13.00;99.90;;;;;;5099124;28;20051;-78
2024/02/22 04:07:30;;;;;;;8.32;2.95;;;13.00;99.90;;;;;;5104781;28;20394;-76
2024/02/22 04:09:55;;;;;;;27.95;8.65;;;13.10;99.90;;;;;;5092698;28;20024;-77
2024/02/22 04:12:21;;;;;;;25.95;8.48;;;13.10;99.90;;;;;;5092005;28;20039;-77
2024/02/22 04:14:47;;;;;;;22.48;7.65;;;13.10;99.90;;;;;;5103249;28;20356;-77
2024/02/22 04:17:12;;;;;;;10.77;5.30;;;13.10;99.90;;;;;;5091936;28;20028;-76
2024/02/22 04:19:38;;;;;;;19.52;7.13;;;13.10;99.90;;;;;;5093022;28;20399;-77
2024/02/22 04:22:04;;;;;;;15.20;7.10;;;13.20;99.90;;;;;;5090088;28;20028;-77
2024/02/22 04:24:29;;;;;;;9.02;4.47;;;13.20;99.90;;;;;;5091150;28;20055;-77
2024/02/22 04:26:55;;;;;;;19.50;8.38;;;13.20;99.90;;;;;;5090243;28;20074;-77
2024/02/22 04:29:21;;;;;;;13.35;4.93;;;13.20;99.90;;;;;;5098463;28;20076;-76
2024/02/22 04:31:47;;;;;;;29.30;7.93;;;13.20;99.90;;;;;;5095340;28;20024;-76
2024/02/22 04:34:13;;;;;;;29.23;8.70;;;13.20;99.90;;;;;;5097277;28;20047;-77
2024/02/22 04:36:42;;;;;;;16.65;6.40;;;13.30;99.90;;;;;;5100036;28;20015;-77
2024/02/22 04:39:13;;;;;;;17.45;6.85;;;13.30;99.90;;;;;;5111315;28;20038;-77
2024/02/22 04:41:40;;;;;;;27.75;8.07;;;13.20;99.90;;;;;;5105744;28;20217;-77
2024/02/22 04:44:06;;;;;;;19.58;5.10;;;13.20;99.90;;;;;;5104958;28;20071;-77
2024/02/22 04:46:35;;;;;;;17.00;6.68;;;13.20;99.90;;;;;;5097750;28;20514;-78
2024/02/22 04:49:04;;;;;;;29.92;7.72;;;13.30;99.90;;;;;;5096651;28;20039;-78
2024/02/22 04:51:31;;;;;;;18.02;6.05;;;13.30;99.90;;;;;;5096124;28;20043;-77
2024/02/22 04:53:57;;;;;;;26.95;9.40;;;13.30;99.90;;;;;;5097622;28;20161;-78
2024/02/22 04:56:23;;;;;;;29.05;9.63;;;13.30;99.90;;;;;;5095768;28;20111;-78
2024/02/22 04:58:48;;;;;;;23.45;7.60;;;13.30;99.90;;;;;;5109108;28;20032;-78
2024/02/22 05:01:14;;;;;;;45.58;9.52;;;13.30;99.90;;;;;;5097034;28;20032;-78
2024/02/22 05:03:40;;;;;;;12.13;6.90;;;13.40;99.90;;;;;;5098698;28;20860;-78
2024/02/22 05:06:05;;;;;;;28.52;10.40;;;13.40;99.90;;;;;;5090689;28;20031;-78
2024/02/22 05:08:31;;;;;;;23.75;8.00;;;13.40;99.90;;;;;;5092535;28;20074;-78
2024/02/22 05:10:57;;;;;;;23.70;9.70;;;13.40;99.90;;;;;;5088585;28;20024;-78
2024/02/22 05:13:22;;;;;;;27.88;10.13;;;13.40;99.90;;;;;;5103057;28;20027;-78
2024/02/22 05:15:48;;;;;;;21.83;9.00;;;13.50;99.90;;;;;;5091610;28;20027;-78
2024/02/22 05:18:14;;;;;;;27.90;12.73;;;13.60;99.90;;;;;;5088695;28;20028;-77
2024/02/22 05:20:40;;;;;;;25.98;10.30;;;13.50;99.90;;;;;;5089995;28;20040;-77
2024/02/22 05:23:06;;;;;;;27.92;9.70;;;13.60;99.90;;;;;;5090534;28;20059;-78
2024/02/22 05:25:32;;;;;;;10.45;5.50;;;13.50;99.90;;;;;;5091444;28;20504;-78
2024/02/22 05:27:57;;;;;;;16.63;5.32;;;13.50;99.90;;;;;;5093463;28;20115;-78
2024/02/22 05:30:23;;;;;;;19.50;7.38;;;13.40;99.90;;;;;;5091990;28;20106;-77
2024/02/22 05:32:49;;;;;;;20.55;9.80;;;13.50;99.90;;;;;;5089251;28;20070;-78
2024/02/22 05:35:15;;;;;;;18.15;8.30;;;13.50;99.90;;;;;;5101319;28;20132;-78
2024/02/22 05:37:40;;;;;;;31.20;12.25;;;13.40;99.90;;;;;;5100352;28;20024;-78
2024/02/22 05:40:08;;;;;;;45.85;12.70;;;13.40;99.90;;;;;;5094115;28;21092;-78
2024/02/22 05:42:34;;;;;;;36.15;11.77;;;13.40;99.90;;;;;;5098734;28;20498;-79
2024/02/22 05:45:00;;;;;;;22.83;8.55;;;13.50;99.90;;;;;;5110007;28;20165;-78
2024/02/22 05:47:25;;;;;;;39.13;9.25;;;13.50;99.90;;;;;;5107249;28;20161;-78
2024/02/22 05:49:51;;;;;;;39.75;11.10;;;13.60;99.90;;;;;;5106464;28;20020;-78
2024/02/22 05:52:17;;;;;;;42.65;10.23;;;13.60;99.90;;;;;;5104229;28;20577;-78
2024/02/22 05:54:45;;;;;;;25.35;9.75;;;13.60;99.90;;;;;;5094535;28;20386;-77
2024/02/22 05:57:11;;;;;;;22.70;10.27;;;13.70;99.90;;;;;;5090586;28;20024;-76
2024/02/22 05:59:37;;;;;;;39.95;10.68;;;13.70;99.90;;;;;;5096751;28;20034;-76
2024/02/22 06:02:05;;;;;;;30.77;9.65;;;13.70;99.90;;;;;;5098179;28;20498;-80
2024/02/22 06:04:31;;;;;;;17.60;6.90;;;13.80;99.90;;;;;;5101986;28;20025;-78
2024/02/22 06:06:56;;;;;;;23.17;9.07;;;13.70;99.90;;;;;;5089629;28;20388;-78
2024/02/22 06:09:22;;;;;;;20.27;9.57;;;13.80;99.90;;;;;;5092628;28;21806;-78
2024/02/22 06:11:48;;;;;;;17.77;8.35;;;13.70;99.90;;;;;;5090675;28;20047;-78
2024/02/22 06:14:14;;;;;;;21.35;8.73;;;13.70;99.90;;;;;;5090002;28;20652;-78
2024/02/22 06:16:39;;;;;;;22.10;8.52;;;13.70;99.90;;;;;;5100750;28;20044;-78
2024/02/22 06:19:05;;;;;;;22.98;9.88;;;13.70;99.90;;;;;;5090844;28;20032;-78
2024/02/22 06:21:31;;;;;;;19.75;9.40;;;13.70;99.90;;;;;;5109596;28;20035;-78
2024/02/22 06:23:57;;;;;;;19.08;7.72;;;13.80;99.90;;;;;;5106420;28;20032;-78
2024/02/22 06:26:23;;;;;;;14.18;6.10;;;13.80;99.90;;;;;;5096365;28;20040;-78
2024/02/22 06:28:49;;;;;;;14.50;6.03;;;13.80;99.90;;;;;;5087678;28;20457;-78
2024/02/22 06:31:15;;;;;;;13.70;4.93;;;13.70;99.90;;;;;;5101289;28;20034;-78
2024/02/22 06:33:40;;;;;;;4.40;2.58;;;13.70;99.90;;;;;;5106385;28;20069;-78
2024/02/22 06:36:08;;;;;;;8.77;2.10;;;13.70;99.90;;;;;;5095368;28;20036;-78
2024/02/22 06:38:33;;;;;;;4.00;2.33;;;13.60;99.90;;;;;;5089775;28;20039;-78
2024/02/22 06:41:00;;;;;;;3.85;2.03;;;13.60;99.90;;;;;;5088358;28;20040;-78
2024/02/22 06:43:31;;;;;;;3.65;2.80;;;13.50;99.90;;;;;;5090137;28;20119;-78
2024/02/22 06:45:57;;;;;;;5.05;2.55;;;13.50;99.90;;;;;;5088439;28;20042;-78
2024/02/22 06:48:25;;;;;;;6.57;2.00;;;13.40;99.90;;;;;;5090317;28;20024;-78
2024/02/22 06:50:51;;;;;;;2.88;2.20;;;13.30;99.90;;;;;;5087307;28;20434;-78
2024/02/22 06:53:16;;;;;;;8.00;4.07;;;13.20;99.90;;;;;;5089073;28;20032;-78
2024/02/22 06:55:43;;;;;;;4.05;2.67;;;13.20;99.90;;;;;;5088142;28;20040;-78
2024/02/22 06:58:10;;;;;;;3.03;2.10;;;13.20;99.90;;;;;;5088208;28;20081;-78
2024/02/22 07:00:38;;;;;;;4.25;2.65;;;13.20;99.90;;;;;;5087797;28;20040;-78
2024/02/22 07:03:04;;;;;;;2.70;1.83;;;13.10;99.90;;;;;;5092150;28;20746;-78
2024/02/22 07:05:30;;;;;;;5.13;3.40;;;13.10;99.90;;;;;;5090154;28;20024;-78
2024/02/22 07:07:55;;;;;;;5.95;2.22;;;13.10;99.90;;;;;;5096164;28;20427;-78
2024/02/22 07:10:21;;;;;;;9.27;4.60;;;13.10;99.90;;;;;;5107391;28;20032;-78
2024/02/22 07:12:47;;;;;;;7.18;4.00;;;13.10;99.90;;;;;;5107574;28;20129;-79
2024/02/22 07:15:15;;;;;;;11.13;4.22;;;13.10;99.90;;;;;;5091295;28;20035;-79
2024/02/22 07:17:40;;;;;;;5.78;3.28;;;13.10;99.90;;;;;;5087808;28;20545;-78
2024/02/22 07:20:06;;;;;;;9.23;3.20;;;13.10;99.90;;;;;;5089476;28;20046;-78
2024/02/22 07:22:33;;;;;;;15.02;6.50;;;13.10;99.90;;;;;;5095256;28;20031;-79
2024/02/22 07:24:58;;;;;;;21.15;5.88;;;13.10;99.90;;;;;;5094624;28;20112;-78
2024/02/22 07:27:27;;;;;;;14.15;4.78;;;13.00;99.90;;;;;;5094365;28;20078;-78
2024/02/22 07:29:53;;;;;;;10.48;4.47;;;13.00;99.90;;;;;;5088259;28;20028;-78
2024/02/22 07:32:18;;;;;;;15.88;6.13;;;13.00;99.90;;;;;;5092482;28;20134;-78
2024/02/22 07:34:44;;;;;;;21.92;6.07;;;13.00;99.90;;;;;;5101009;28;20031;-78
2024/02/22 07:37:11;;;;;;;8.45;3.95;;;13.00;99.90;;;;;;5101150;28;20471;-78
2024/02/22 07:39:37;;;;;;;16.15;6.10;;;13.00;99.90;;;;;;5093120;28;21690;-73
2024/02/22 07:42:03;;;;;;;1.80;1.67;;;13.00;99.90;;;;;;5089734;28;20126;-75
2024/02/22 07:44:29;;;;;;;18.92;5.28;;;12.90;99.90;;;;;;5095091;28;20032;-75
2024/02/22 07:46:55;;;;;;;12.10;4.30;;;13.00;99.90;;;;;;5100720;28;20028;-78
2024/02/22 07:49:21;;;;;;;14.73;4.22;;;13.00;99.90;;;;;;5100947;28;20032;-77
2024/02/22 07:51:47;;;;;;;8.40;3.00;;;13.00;99.90;;;;;;5088747;28;20105;-78
2024/02/22 07:54:13;;;;;;;32.92;4.80;;;13.00;99.90;;;;;;5095973;28;20032;-77
2024/02/22 07:56:39;;;;;;;10.48;1.67;;;13.00;99.90;;;;;;5094480;28;20379;-77
2024/02/22 07:59:05;;;;;;;22.08;4.80;;;13.00;99.90;;;;;;5097456;28;20032;-78
2024/02/22 08:01:31;;;;;;;7.63;2.63;;;13.10;99.90;;;;;;5088401;28;20132;-77
2024/02/22 08:03:57;;;;;;;15.55;3.78;;;13.10;99.90;;;;;;5085741;28;20103;-81
2024/02/22 08:06:22;;;;;;;4.30;1.50;;;13.20;99.90;;;;;;5090569;28;20024;-77
2024/02/22 08:08:48;;;;;;;19.70;3.35;;;13.20;99.90;;;;;;5091298;28;20473;-78
2024/02/22 08:11:15;;;;;;;10.50;1.85;;;13.20;99.90;;;;;;5092796;28;20027;-78
2024/02/22 08:13:42;;;;;;;16.83;3.88;;;13.20;99.90;;;;;;5096283;28;20041;-77
2024/02/22 08:16:08;;;;;;;5.90;1.77;;;13.20;99.90;;;;;;5107061;28;20558;-78
2024/02/22 08:18:40;;;;;;;12.30;3.25;;;13.20;99.90;;;;;;5095055;28;20412;-78
2024/02/22 08:21:06;;;;;;;6.10;1.60;;;13.20;99.90;;;;;;5092663;28;20407;-77
2024/02/22 08:23:32;;;;;;;5.00;1.63;;;13.10;99.90;;;;;;5102868;28;20480;-78
2024/02/22 08:25:58;;;;;;;4.05;1.50;;;13.10;99.90;;;;;;5097200;28;20386;-78
2024/02/22 08:28:24;;;;;;;10.00;2.67;;;13.10;99.90;;;;;;5099623;28;20028;-77
2024/02/22 08:30:51;;;;;;;9.75;3.15;;;13.20;99.90;;;;;;5106184;28;20057;-78
2024/02/22 08:33:17;;;;;;;8.07;2.35;;;13.20;99.90;;;;;;5099475;28;20028;-77
2024/02/22 08:35:43;;;;;;;4.78;1.42;;;13.20;99.90;;;;;;5107007;28;20085;-78
2024/02/22 08:38:10;;;;;;;3.42;1.17;;;13.20;99.90;;;;;;5098353;28;20024;-77
2024/02/22 08:40:36;;;;;;;8.75;2.65;;;13.20;99.90;;;;;;5098164;28;20035;-80
2024/02/22 08:43:03;;;;;;;8.55;2.65;;;13.20;99.90;;;;;;5100046;28;20189;-77
2024/02/22 08:45:31;;;;;;;9.38;2.30;;;13.20;99.90;;;;;;5108249;28;20079;-79
2024/02/22 08:47:56;;;;;;;1.45;1.25;;;13.20;99.90;;;;;;5097649;28;20463;-80
2024/02/22 08:50:22;;;;;;;15.52;2.13;;;13.20;99.90;;;;;;5095658;28;20032;-78
2024/02/22 08:52:48;;;;;;;13.23;2.35;;;13.20;99.90;;;;;;5106947;28;20051;-78
2024/02/22 08:55:13;;;;;;;17.83;2.35;;;13.20;99.90;;;;;;5095430;28;20028;-78
2024/02/22 08:57:40;;;;;;;19.98;3.75;;;13.20;99.90;;;;;;5095048;28;20173;-78
2024/02/22 09:00:10;;;;;;;12.40;2.70;;;13.10;99.90;;;;;;5097581;28;20032;-78
2024/02/22 09:02:39;;;;;;;7.72;1.80;;;13.10;99.90;;;;;;5104421;28;20513;-80
2024/02/22 09:05:06;;;;;;;2.90;1.88;;;13.10;99.90;;;;;;5105576;28;20042;-80
2024/02/22 09:07:34;;;;;;;11.15;2.15;;;13.10;99.90;;;;;;5094235;28;20356;-80
2024/02/22 09:10:09;;;;;;;4.18;1.88;;;13.20;99.90;;;;;;5089118;28;20032;-78
2024/02/22 09:12:35;;;;;;;15.90;2.33;;;13.10;99.90;;;;;;5096453;28;20032;-80
2024/02/22 09:15:02;;;;;;;3.63;1.63;;;13.10;99.90;;;;;;5098869;28;20076;-78
2024/02/22 09:17:28;;;;;;;12.40;1.98;;;13.20;99.90;;;;;;5095603;28;20028;-78
2024/02/22 09:19:53;;;;;;;7.32;1.38;;;13.10;99.90;;;;;;5101890;28;20046;-79
2024/02/22 09:22:21;;;;;;;8.93;1.33;;;13.20;99.90;;;;;;5094168;28;20089;-79
2024/02/22 09:24:47;;;;;;;10.23;2.40;;;13.20;99.90;;;;;;5096763;28;20100;-78
2024/02/22 09:27:13;;;;;;;4.18;1.77;;;13.30;99.90;;;;;;5098925;28;20038;-78
2024/02/22 09:29:46;;;;;;;11.98;1.88;;;13.30;99.90;;;;;;5096373;28;20031;-78
2024/02/22 09:32:11;;;;;;;9.02;1.90;;;13.40;99.90;;;;;;5105628;28;20046;-78
2024/02/22 09:34:37;;;;;;;19.95;3.40;;;13.50;99.90;;;;;;5098778;28;20471;-78
2024/02/22 09:37:03;;;;;;;11.93;1.77;;;13.50;99.90;;;;;;5099644;28;20386;-78
2024/02/22 09:39:30;;;;;;;8.07;1.58;;;13.50;99.90;;;;;;5097188;28;20451;-78
2024/02/22 09:41:56;;;;;;;10.52;3.38;;;13.60;99.90;;;;;;5109410;28;20048;-75
2024/02/22 09:44:22;;;;;;;21.58;3.13;;;13.60;99.90;;;;;;5091224;28;20027;-76
2024/02/22 09:46:49;;;;;;;14.82;3.10;;;13.60;99.90;;;;;;5105831;28;20032;-83
2024/02/22 09:49:17;;;;;;;11.52;3.80;;;13.70;99.90;;;;;;5095350;28;20035;-77
2024/02/22 09:51:43;;;;;;;4.78;1.27;;;13.70;99.90;;;;;;5099847;28;20044;-78
2024/02/22 09:54:10;;;;;;;15.18;3.67;;;13.70;99.90;;;;;;5087592;28;20062;-78
2024/02/22 09:56:38;;;;;;;10.98;2.90;;;13.80;99.90;;;;;;5095242;28;20094;-77
2024/02/22 09:59:04;;;;;;;24.20;4.75;;;13.90;99.90;;;;;;5088537;28;20396;-78
2024/02/22 10:01:30;;;;;;;17.02;3.72;;;13.90;99.90;;;;;;5089812;28;20040;-77
2024/02/22 10:03:55;;;;;;;9.98;2.08;;;14.00;99.90;;;;;;5088231;28;20028;-77
2024/02/22 10:06:26;;;;;;;18.98;3.63;;;14.10;99.90;;;;;;5093772;28;20388;-77
2024/02/22 10:08:57;;;;;;;8.75;2.75;;;14.20;99.90;;;;;;5100688;28;20028;-78
2024/02/22 10:11:23;;;;;;;9.98;3.25;;;14.10;99.90;;;;;;5102984;28;20046;-77
2024/02/22 10:13:57;;;;;;;13.82;3.63;;;14.10;99.90;;;;;;5105413;28;20040;-78
2024/02/22 10:16:22;;;;;;;10.38;2.70;;;14.10;99.90;;;;;;5088952;28;20479;-77
2024/02/22 10:18:49;;;;;;;14.45;3.05;;;14.10;99.90;;;;;;5091307;28;20055;-77
2024/02/22 10:21:18;;;;;;;15.35;3.95;;;14.10;99.90;;;;;;5099390;28;20050;-78
2024/02/22 10:23:54;;;;;;;6.75;2.97;;;14.10;99.90;;;;;;5089252;28;20051;-77
2024/02/22 10:26:20;;;;;;;11.02;3.10;;;14.10;99.90;;;;;;5098455;28;20049;-77
2024/02/22 10:29:08;;;;;;;10.98;2.13;;;14.10;99.90;;;;;;5091467;28;20023;-77
2024/02/22 10:31:40;;;;;;;8.80;1.88;;;14.10;99.90;;;;;;5093124;28;20388;-77
2024/02/22 10:34:06;;;;;;;9.75;2.15;;;14.10;99.90;;;;;;5103035;28;20023;-78
2024/02/22 10:36:32;;;;;;;8.98;3.13;;;14.10;99.90;;;;;;5097659;28;20034;-78
2024/02/22 10:38:58;;;;;;;15.30;2.95;;;14.20;99.90;;;;;;5107730;28;20110;-79
2024/02/22 10:41:25;;;;;;;10.25;2.55;;;14.20;99.90;;;;;;5091257;28;20050;-78
2024/02/22 10:43:52;;;;;;;10.27;2.53;;;14.20;99.90;;;;;;5089078;28;20426;-78
2024/02/22 10:46:18;;;;;;;12.38;2.40;;;14.10;99.90;;;;;;5088278;28;20028;-78
2024/02/22 10:48:53;;;;;;;14.05;3.92;;;14.10;99.90;;;;;;5097100;28;20036;-78
2024/02/22 10:51:21;;;;;;;15.30;3.25;;;14.10;99.90;;;;;;5093228;28;20039;-78
2024/02/22 10:53:55;;;;;;;4.35;2.30;;;14.10;99.90;;;;;;5106347;28;20032;-75
2024/02/22 10:56:25;;;;;;;5.95;2.60;;;14.10;99.90;;;;;;5095337;28;20115;-75
2024/02/22 10:59:20;;;;;;;22.90;4.53;;;14.20;99.90;;;;;;5088565;28;20081;-75
2024/02/22 11:01:47;;;;;;;10.43;2.75;;;14.20;99.90;;;;;;5094025;28;20488;-75
2024/02/22 11:04:14;;;;;;;2.38;1.65;;;14.20;99.90;;;;;;5096136;28;20385;-75
2024/02/22 11:06:41;;;;;;;3.50;1.30;;;14.20;99.90;;;;;;5098776;28;20402;-77
2024/02/22 11:09:24;;;;;;;14.35;3.13;;;14.30;99.90;;;;;;5094000;28;20111;-77
2024/02/22 11:11:54;;;;;;;5.55;2.10;;;14.30;99.90;;;;;;5088436;28;20497;-77
2024/02/22 11:14:33;;;;;;;14.98;4.03;;;14.30;99.90;;;;;;5088621;28;20050;-77
2024/02/22 11:16:59;;;;;;;17.83;4.93;;;14.30;99.90;;;;;;5104135;28;20035;-77
2024/02/22 11:19:26;;;;;;;15.43;4.03;;;14.20;99.90;;;;;;5096816;28;20095;-75
2024/02/22 11:21:52;;;;;;;21.40;5.20;;;14.30;99.90;;;;;;5094498;28;20043;-80
2024/02/22 11:24:23;;;;;;;8.43;2.78;;;14.30;99.90;;;;;;5089974;28;20028;-87
2024/02/22 11:26:50;;;;;;;23.30;4.60;;;14.40;99.90;;;;;;5090948;28;20046;-80
2024/02/22 11:29:32;;;;;;;19.48;4.82;;;14.40;99.90;;;;;;5097403;28;20752;-78
2024/02/22 11:32:03;;;;;;;20.95;5.25;;;14.50;99.90;;;;;;5092805;28;20032;-78
2024/02/22 11:34:30;;;;;;;12.15;4.22;;;14.50;99.90;;;;;;5090934;28;20035;-78
2024/02/22 11:36:57;;;;;;;11.43;3.28;;;14.60;99.90;;;;;;5107884;28;20506;-77
2024/02/22 11:39:23;;;;;;;13.65;4.35;;;14.60;99.90;;;;;;5106011;28;20115;-78
2024/02/22 11:41:49;;;;;;;7.95;2.45;;;14.60;99.90;;;;;;5107398;28;20126;-76
2024/02/22 11:44:16;;;;;;;11.80;3.42;;;14.50;99.90;;;;;;5098577;28;20064;-78
2024/02/22 11:46:43;;;;;;;7.13;2.85;;;14.50;99.90;;;;;;5101851;28;20040;-77
2024/02/22 11:49:10;;;;;;;3.83;2.03;;;14.40;99.90;;;;;;5102142;28;20040;-77
2024/02/22 11:51:36;;;;;;;12.63;4.43;;;14.40;99.90;;;;;;5103521;28;20047;-77
2024/02/22 11:54:03;;;;;;;12.70;4.20;;;14.40;99.90;;;;;;5098536;28;20046;-77
2024/02/22 11:56:29;;;;;;;13.32;4.05;;;14.50;99.90;;;;;;5092115;28;20040;-77
2024/02/22 11:58:56;;;;;;;1.63;1.17;;;14.50;99.90;;;;;;5100159;28;20026;-77
2024/02/22 12:01:23;;;;;;;15.18;3.78;;;14.60;99.90;;;;;;5095153;28;20043;-78
2024/02/22 12:03:51;;;;;;;14.02;5.18;;;14.60;99.90;;;;;;5105829;28;20069;-77
2024/02/22 12:06:19;;;;;;;10.07;4.07;;;14.60;99.90;;;;;;5097589;28;20111;-78
2024/02/22 12:08:45;;;;;;;13.52;4.40;;;14.60;99.90;;;;;;5097586;28;20067;-79
2024/02/22 12:11:14;;;;;;;13.35;4.70;;;14.70;99.90;;;;;;5104540;28;20028;-77
2024/02/22 12:13:40;;;;;;;11.13;3.83;;;14.80;99.90;;;;;;5101818;28;20402;-78
2024/02/22 12:16:08;;;;;;;11.30;4.65;;;14.90;99.90;;;;;;5094070;28;20420;-75
2024/02/22 12:18:35;;;;;;;12.00;3.53;;;14.90;99.90;;;;;;5095870;28;20392;-80
2024/02/22 12:21:09;;;;;;;11.93;4.10;;;15.00;99.90;;;;;;5093173;28;20036;-78
2024/02/22 12:23:35;;;;;;;10.40;3.00;;;15.00;99.90;;;;;;5091110;28;20356;-79
2024/02/22 12:26:06;;;;;;;14.23;3.85;;;15.00;99.90;;;;;;5101858;28;20047;-77
2024/02/22 12:28:40;;;;;;;6.68;2.45;;;15.00;99.90;;;;;;5099442;28;20047;-77
2024/02/22 12:31:06;;;;;;;11.80;5.13;;;15.10;99.90;;;;;;5089640;28;20032;-71
2024/02/22 12:33:33;;;;;;;8.73;3.85;;;15.00;99.90;;;;;;5090741;28;20097;-74
2024/02/22 12:36:01;;;;;;;8.45;3.25;;;15.10;99.90;;;;;;5101766;28;20770;-79
2024/02/22 12:38:27;;;;;;;9.35;4.85;;;15.20;99.90;;;;;;5103169;28;20089;-78